createdAt,value
2018-11-29T00:00:51.094Z,6.80
2018-11-29T00:03:20.851Z,6.80
2018-11-29T00:05:50.621Z,6.80
2018-11-29T00:08:20.384Z,6.80
2018-11-29T00:10:50.137Z,6.80
2018-11-29T00:13:19.914Z,6.70
2018-11-29T00:15:49.742Z,6.70
2018-11-29T00:18:19.501Z,6.70
2018-11-29T00:20:49.257Z,6.70
2018-11-29T00:23:19.017Z,6.60
2018-11-29T00:25:48.805Z,6.70
2018-11-29T00:28:18.562Z,6.60
2018-11-29T00:30:48.336Z,6.60
2018-11-29T00:33:18.138Z,6.70
2018-11-29T00:35:47.881Z,6.60
2018-11-29T00:38:17.678Z,6.60
2018-11-29T00:40:47.415Z,6.60
2018-11-29T00:43:17.202Z,6.60
2018-11-29T00:45:46.968Z,6.60
2018-11-29T00:48:16.741Z,6.60
2018-11-29T00:50:46.502Z,6.60
2018-11-29T00:53:16.244Z,6.60
2018-11-29T00:55:46.026Z,6.60
2018-11-29T00:58:15.809Z,6.60
2018-11-29T01:00:45.626Z,6.60
2018-11-29T01:03:15.462Z,6.60
2018-11-29T01:05:45.573Z,6.60
2018-11-29T01:08:15.385Z,6.60
2018-11-29T01:10:45.151Z,6.60
2018-11-29T01:13:15.010Z,6.60
2018-11-29T01:15:44.798Z,6.60
2018-11-29T01:18:14.589Z,6.60
2018-11-29T01:20:44.357Z,6.50
2018-11-29T01:23:14.561Z,6.60
2018-11-29T01:25:44.362Z,6.60
2018-11-29T01:28:14.169Z,6.60
2018-11-29T01:30:43.933Z,6.70
2018-11-29T01:33:13.780Z,6.70
2018-11-29T01:35:43.519Z,6.70
2018-11-29T01:38:13.541Z,6.70
2018-11-29T01:40:43.313Z,6.70
2018-11-29T01:43:13.137Z,6.80
2018-11-29T01:45:42.884Z,6.80
2018-11-29T01:48:12.682Z,6.80
2018-11-29T01:50:42.437Z,6.80
2018-11-29T01:53:12.620Z,6.80
2018-11-29T01:55:42.376Z,6.90
2018-11-29T01:58:12.206Z,6.80
2018-11-29T02:00:42.016Z,6.80
2018-11-29T02:03:11.806Z,6.80
2018-11-29T02:05:41.575Z,6.80
2018-11-29T02:08:11.563Z,6.80
2018-11-29T02:10:46.980Z,6.80
2018-11-29T02:13:16.748Z,6.80
2018-11-29T02:15:46.890Z,6.80
2018-11-29T02:18:16.665Z,6.80
2018-11-29T02:20:46.442Z,6.90
2018-11-29T02:23:16.196Z,6.90
2018-11-29T02:25:45.993Z,7.00
2018-11-29T02:28:15.788Z,6.90
2018-11-29T02:30:45.647Z,6.90
2018-11-29T02:33:15.659Z,6.90
2018-11-29T02:35:45.812Z,6.90
2018-11-29T02:38:15.615Z,6.90
2018-11-29T02:40:45.493Z,6.90
2018-11-29T02:43:15.650Z,7.00
2018-11-29T02:45:45.482Z,7.00
2018-11-29T02:48:15.295Z,7.00
2018-11-29T02:50:45.078Z,7.00
2018-11-29T02:53:15.201Z,7.00
2018-11-29T02:55:44.983Z,7.00
2018-11-29T02:58:14.778Z,7.00
2018-11-29T03:00:44.552Z,6.90
2018-11-29T03:03:14.315Z,6.90
2018-11-29T03:05:44.130Z,7.00
2018-11-29T03:08:13.878Z,7.00
2018-11-29T03:10:43.632Z,7.00
2018-11-29T03:13:13.395Z,7.00
2018-11-29T03:15:43.180Z,7.00
2018-11-29T03:18:12.935Z,7.00
2018-11-29T03:20:42.709Z,7.10
2018-11-29T03:23:12.505Z,7.20
2018-11-29T03:25:42.286Z,7.20
2018-11-29T03:28:12.129Z,7.10
2018-11-29T03:30:41.905Z,7.10
2018-11-29T03:33:12.000Z,7.10
2018-11-29T03:35:44.481Z,7.00
2018-11-29T03:38:11.697Z,7.00
2018-11-29T03:40:41.644Z,7.00
2018-11-29T03:43:11.514Z,7.00
2018-11-29T03:45:41.302Z,7.10
2018-11-29T03:48:11.122Z,7.10
2018-11-29T03:50:40.927Z,7.10
2018-11-29T03:53:10.767Z,7.10
2018-11-29T03:55:40.611Z,7.00
2018-11-29T03:58:10.459Z,7.00
2018-11-29T04:00:40.213Z,7.00
2018-11-29T04:03:10.011Z,7.10
2018-11-29T04:05:39.769Z,7.00
2018-11-29T04:08:09.546Z,7.10
2018-11-29T04:10:39.353Z,7.10
2018-11-29T04:13:09.132Z,7.10
2018-11-29T04:15:38.957Z,7.10
2018-11-29T04:18:08.769Z,7.10
2018-11-29T04:20:38.551Z,7.00
2018-11-29T04:23:08.306Z,7.00
2018-11-29T04:25:38.104Z,7.00
2018-11-29T04:28:07.881Z,7.00
2018-11-29T04:30:37.691Z,7.00
2018-11-29T04:33:07.447Z,7.00
2018-11-29T04:35:37.221Z,7.00
2018-11-29T04:38:07.021Z,6.90
2018-11-29T04:40:36.778Z,6.90
2018-11-29T04:43:06.813Z,6.90
2018-11-29T04:45:53.653Z,6.90
2018-11-29T04:48:23.441Z,7.00
2018-11-29T04:50:53.197Z,7.00
2018-11-29T04:53:22.974Z,7.00
2018-11-29T04:55:52.737Z,7.00
2018-11-29T04:58:22.493Z,7.00
2018-11-29T05:00:52.497Z,7.00
2018-11-29T05:03:22.371Z,6.90
2018-11-29T05:05:52.181Z,7.00
2018-11-29T05:08:22.291Z,7.00
2018-11-29T05:10:52.071Z,7.00
2018-11-29T05:13:22.210Z,7.00
2018-11-29T05:15:52.017Z,6.90
2018-11-29T05:18:21.806Z,6.90
2018-11-29T05:20:51.585Z,7.00
2018-11-29T05:23:21.349Z,7.00
2018-11-29T05:25:51.126Z,7.00
2018-11-29T05:28:20.892Z,7.00
2018-11-29T05:30:50.680Z,7.00
2018-11-29T05:33:20.434Z,7.00
2018-11-29T05:35:50.223Z,7.10
2018-11-29T05:38:19.993Z,7.00
2018-11-29T05:40:49.769Z,7.00
2018-11-29T05:43:19.529Z,7.00
2018-11-29T05:45:49.326Z,7.10
2018-11-29T05:48:19.101Z,7.10
2018-11-29T05:50:49.017Z,7.10
2018-11-29T05:53:18.777Z,7.00
2018-11-29T05:55:48.917Z,7.00
2018-11-29T05:58:18.693Z,7.00
2018-11-29T06:00:48.492Z,7.00
2018-11-29T06:03:18.286Z,7.00
2018-11-29T06:05:48.046Z,7.10
2018-11-29T06:08:17.842Z,7.10
2018-11-29T06:10:48.029Z,7.10
2018-11-29T06:13:17.801Z,7.10
2018-11-29T06:15:47.585Z,7.10
2018-11-29T06:18:17.361Z,7.10
2018-11-29T06:20:47.585Z,7.10
2018-11-29T06:23:17.348Z,7.10
2018-11-29T06:25:47.146Z,7.00
2018-11-29T06:28:16.932Z,7.00
2018-11-29T06:30:46.713Z,7.00
2018-11-29T06:33:16.473Z,7.00
2018-11-29T06:35:46.368Z,7.00
2018-11-29T06:38:16.124Z,7.00
2018-11-29T06:40:46.103Z,7.00
2018-11-29T06:43:15.889Z,7.00
2018-11-29T06:45:45.684Z,7.00
2018-11-29T06:48:15.445Z,7.00
2018-11-29T06:50:45.532Z,7.00
2018-11-29T06:53:20.681Z,7.00
2018-11-29T06:55:50.606Z,7.00
2018-11-29T06:58:20.401Z,7.00
2018-11-29T07:00:50.202Z,7.00
2018-11-29T07:03:19.974Z,7.10
2018-11-29T07:05:49.998Z,7.10
2018-11-29T07:08:19.790Z,7.00
2018-11-29T07:10:49.893Z,7.00
2018-11-29T07:13:19.686Z,7.00
2018-11-29T07:15:49.452Z,7.00
2018-11-29T07:18:19.234Z,7.00
2018-11-29T07:21:06.124Z,6.90
2018-11-29T07:23:35.884Z,6.90
2018-11-29T07:26:06.353Z,7.00
2018-11-29T07:28:36.145Z,7.00
2018-11-29T07:31:06.321Z,7.00
2018-11-29T07:33:36.100Z,7.00
2018-11-29T07:36:06.557Z,7.00
2018-11-29T08:06:24.667Z,7.20
2018-11-29T08:09:07.775Z,7.20
2018-11-29T08:11:47.530Z,7.20
2018-11-29T08:14:26.401Z,7.20
2018-11-29T08:17:15.019Z,7.30
2018-11-29T08:22:43.857Z,7.30
2018-11-29T08:25:19.242Z,7.30
2018-11-29T08:30:35.689Z,7.40
2018-11-29T08:33:06.581Z,7.40
2018-11-29T08:35:43.049Z,7.40
2018-11-29T08:40:53.182Z,7.30
2018-11-29T08:43:26.827Z,7.30
2018-11-29T08:45:59.746Z,7.40
2018-11-29T08:48:31.501Z,7.40
2018-11-29T08:51:30.056Z,7.40
2018-11-29T08:54:05.733Z,7.30
2018-11-29T08:56:41.566Z,7.20
2018-11-29T08:59:13.989Z,7.20
2018-11-29T09:01:47.010Z,7.20
2018-11-29T09:04:18.651Z,7.20
2018-11-29T09:06:54.478Z,7.20
2018-11-29T09:09:38.580Z,7.20
2018-11-29T09:12:16.057Z,7.10
2018-11-29T09:17:34.228Z,7.10
2018-11-29T09:20:34.039Z,7.10
2018-11-29T09:23:11.556Z,7.00
2018-11-29T09:25:51.969Z,7.00
2018-11-29T09:34:50.586Z,7.00
2018-11-29T09:37:36.767Z,7.00
2018-11-29T09:40:28.147Z,7.00
2018-11-29T09:48:52.298Z,7.00
2018-11-29T09:51:29.595Z,7.00
2018-11-29T09:54:10.248Z,7.10
2018-11-29T09:56:47.927Z,7.00
2018-11-29T09:59:20.030Z,7.00
2018-11-29T10:01:55.807Z,7.00
2018-11-29T10:04:31.879Z,7.00
2018-11-29T10:07:12.195Z,7.00
2018-11-29T10:09:49.163Z,7.00
2018-11-29T10:12:31.934Z,7.00
2018-11-29T10:15:11.394Z,7.00
2018-11-29T10:17:50.118Z,7.00
2018-11-29T10:20:31.791Z,7.10
2018-11-29T10:23:04.589Z,7.10
2018-11-29T10:25:44.885Z,7.10
2018-11-29T10:28:32.819Z,7.10
2018-11-29T10:31:18.463Z,7.10
2018-11-29T10:34:18.231Z,7.10
2018-11-29T10:40:03.452Z,7.00
2018-11-29T10:42:51.069Z,7.00
2018-11-29T10:45:29.228Z,7.00
2018-11-29T10:48:08.846Z,7.00
2018-11-29T10:50:52.450Z,6.90
2018-11-29T10:53:36.418Z,7.00
2018-11-29T10:56:14.046Z,7.00
2018-11-29T10:58:47.073Z,7.00
2018-11-29T11:01:27.021Z,7.00
2018-11-29T11:04:04.476Z,7.00
2018-11-29T11:09:41.403Z,7.20
2018-11-29T11:15:23.539Z,7.30
2018-11-29T11:17:59.232Z,7.40
2018-11-29T11:20:44.453Z,7.40
2018-11-29T11:23:24.201Z,7.40
2018-11-29T11:28:46.922Z,7.30
2018-11-29T11:31:31.243Z,7.30
2018-11-29T11:34:11.464Z,7.20
2018-11-29T11:53:06.456Z,7.50
2018-11-29T11:55:42.320Z,7.50
2018-11-29T11:58:22.942Z,7.50
2018-11-29T12:01:00.197Z,7.50
2018-11-29T12:03:38.272Z,7.60
2018-11-29T12:09:40.229Z,7.60
2018-11-29T12:12:27.932Z,7.50
2018-11-29T12:15:05.179Z,7.50
2018-11-29T12:20:24.271Z,7.50
2018-11-29T12:23:25.862Z,7.60
2018-11-29T12:26:13.529Z,7.60
2018-11-29T12:31:50.406Z,7.70
2018-11-29T12:37:04.078Z,8.00
2018-11-29T12:39:40.365Z,8.20
2018-11-29T12:42:13.818Z,8.10
2018-11-29T12:44:56.245Z,7.90
2018-11-29T12:47:32.862Z,7.70
2018-11-29T12:50:08.754Z,7.60
2018-11-29T12:52:50.784Z,7.50
2018-11-29T12:55:31.270Z,7.40
2018-11-29T12:58:21.090Z,7.40
2018-11-29T13:04:03.794Z,7.40
2018-11-29T13:06:36.946Z,7.50
2018-11-29T13:09:14.171Z,7.40
2018-11-29T13:11:55.218Z,7.50
2018-11-29T13:14:28.489Z,7.60
2018-11-29T13:17:03.075Z,7.70
2018-11-29T13:19:43.773Z,7.70
2018-11-29T13:25:22.349Z,7.70
2018-11-29T13:28:01.031Z,7.70
2018-11-29T13:30:39.453Z,7.70
2018-11-29T13:33:17.838Z,7.70
2018-11-29T13:35:55.373Z,7.80
2018-11-29T13:38:27.803Z,7.80
2018-11-29T13:41:08.077Z,7.80
2018-11-29T13:43:48.106Z,7.70
2018-11-29T13:46:20.716Z,7.70
2018-11-29T13:48:57.365Z,7.60
2018-11-29T13:51:31.722Z,7.60
2018-11-29T13:54:14.185Z,7.50
2018-11-29T13:56:49.994Z,7.50
2018-11-29T13:59:20.498Z,7.50
2018-11-29T14:04:48.090Z,7.40
2018-11-29T14:07:17.866Z,7.40
2018-11-29T14:09:47.674Z,7.50
2018-11-29T14:12:17.490Z,7.50
2018-11-29T14:14:47.338Z,7.60
2018-11-29T14:17:17.165Z,7.60
2018-11-29T14:19:46.937Z,7.70
2018-11-29T14:22:16.786Z,7.70
2018-11-29T14:24:46.578Z,7.70
2018-11-29T14:27:16.383Z,7.70
2018-11-29T14:29:46.182Z,7.70
2018-11-29T14:32:16.407Z,7.70
2018-11-29T14:34:51.575Z,7.70
2018-11-29T14:37:16.045Z,7.70
2018-11-29T14:39:45.845Z,7.70
2018-11-29T14:42:15.647Z,7.70
2018-11-29T14:44:46.496Z,7.70
2018-11-29T14:47:16.283Z,7.70
2018-11-29T14:49:46.087Z,7.70
2018-11-29T14:52:15.870Z,7.70
2018-11-29T14:54:45.718Z,7.70
2018-11-29T14:57:15.527Z,7.70
2018-11-29T14:59:45.320Z,7.70
2018-11-29T15:02:15.158Z,7.70
2018-11-29T15:04:44.966Z,7.70
2018-11-29T15:07:14.780Z,7.80
2018-11-29T15:09:44.570Z,7.80
2018-11-29T15:12:14.362Z,7.80
2018-11-29T15:14:44.150Z,7.80
2018-11-29T15:17:14.048Z,7.80
2018-11-29T15:19:43.911Z,7.80
2018-11-29T15:22:15.659Z,7.90
2018-11-29T15:24:46.064Z,7.90
2018-11-29T15:27:16.676Z,7.90
2018-11-29T15:29:46.915Z,8.00
2018-11-29T15:32:17.352Z,8.00
2018-11-29T15:34:47.790Z,8.10
2018-11-29T15:37:18.587Z,8.10
2018-11-29T15:39:48.929Z,8.10
2018-11-29T15:42:19.639Z,8.10
2018-11-29T15:44:49.441Z,8.20
2018-11-29T15:47:19.229Z,8.20
2018-11-29T15:49:49.017Z,8.10
2018-11-29T15:52:18.804Z,8.10
2018-11-29T15:54:48.758Z,8.10
2018-11-29T15:57:18.555Z,8.10
2018-11-29T15:59:48.394Z,8.00
2018-11-29T16:02:18.202Z,8.00
2018-11-29T16:04:48.993Z,8.00
2018-11-29T16:07:19.482Z,8.00
2018-11-29T16:09:49.893Z,8.10
2018-11-29T16:12:20.732Z,8.10
2018-11-29T16:14:51.248Z,8.00
2018-11-29T16:17:21.717Z,8.00
2018-11-29T16:19:52.107Z,8.00
2018-11-29T16:22:21.893Z,8.00
2018-11-29T16:24:51.770Z,7.90
2018-11-29T16:27:21.586Z,7.90
2018-11-29T16:29:51.404Z,7.90
2018-11-29T16:32:21.461Z,7.90
2018-11-29T16:34:51.233Z,8.00
2018-11-29T16:37:21.100Z,8.00
2018-11-29T16:39:50.877Z,8.00
2018-11-29T16:42:20.720Z,7.90
2018-11-29T16:44:50.537Z,7.90
2018-11-29T16:47:20.606Z,7.90
2018-11-29T16:49:50.402Z,7.90
2018-11-29T16:52:20.289Z,7.80
2018-11-29T16:54:50.070Z,7.80
2018-11-29T16:57:19.889Z,7.80
2018-11-29T16:59:49.746Z,7.70
2018-11-29T17:02:19.558Z,7.70
2018-11-29T17:04:49.362Z,7.70
2018-11-29T17:07:19.159Z,7.70
2018-11-29T17:09:48.958Z,7.60
2018-11-29T17:12:21.434Z,7.60
2018-11-29T17:14:52.613Z,7.60
2018-11-29T17:17:22.414Z,7.60
2018-11-29T17:19:52.249Z,7.70
2018-11-29T17:22:22.109Z,7.70
2018-11-29T17:24:51.940Z,7.70
2018-11-29T17:27:21.775Z,7.80
2018-11-29T17:29:51.586Z,7.90
2018-11-29T17:32:21.738Z,7.90
2018-11-29T17:34:51.558Z,8.00
2018-11-29T17:37:21.353Z,8.10
2018-11-29T17:39:51.159Z,8.10
2018-11-29T17:42:20.958Z,8.00
2018-11-29T17:44:50.745Z,8.00
2018-11-29T17:47:20.551Z,8.10
2018-11-29T17:49:50.321Z,8.10
2018-11-29T17:52:20.110Z,8.10
2018-11-29T17:54:49.899Z,8.10
2018-11-29T17:57:19.742Z,8.20
2018-11-29T17:59:49.550Z,8.20
2018-11-29T18:02:19.353Z,8.30
2018-11-29T18:04:49.222Z,8.30
2018-11-29T18:07:19.015Z,8.30
2018-11-29T18:09:48.822Z,8.20
2018-11-29T18:12:18.627Z,8.10
2018-11-29T18:14:48.439Z,8.10
2018-11-29T18:17:19.215Z,8.00
2018-11-29T18:19:48.993Z,8.00
2018-11-29T18:22:18.789Z,8.00
2018-11-29T18:24:48.600Z,8.00
2018-11-29T18:27:18.414Z,8.00
2018-11-29T18:29:48.197Z,8.00
2018-11-29T18:32:18.375Z,8.00
2018-11-29T18:34:48.158Z,8.00
2018-11-29T18:37:18.029Z,7.90
2018-11-29T18:39:47.823Z,7.90
2018-11-29T18:42:17.729Z,7.90
2018-11-29T18:44:47.661Z,8.00
2018-11-29T18:47:17.505Z,8.10
2018-11-29T18:49:47.325Z,8.10
2018-11-29T18:52:17.084Z,8.10
2018-11-29T18:54:46.881Z,8.20
2018-11-29T18:57:16.717Z,8.20
2018-11-29T18:59:46.489Z,8.20
2018-11-29T19:02:16.288Z,8.30
2018-11-29T19:04:46.066Z,8.30
2018-11-29T19:07:15.847Z,8.20
2018-11-29T19:09:45.629Z,8.20
2018-11-29T19:12:15.410Z,8.20
2018-11-29T19:14:45.166Z,8.20
2018-11-29T19:17:14.948Z,8.30
2018-11-29T19:19:44.719Z,8.30
2018-11-29T19:22:14.517Z,8.40
2018-11-29T19:24:44.340Z,8.30
2018-11-29T19:27:14.100Z,8.30
2018-11-29T19:29:43.883Z,8.20
2018-11-29T19:32:13.674Z,8.20
2018-11-29T19:34:43.442Z,8.30
2018-11-29T19:37:13.501Z,8.30
2018-11-29T19:39:43.425Z,8.30
2018-11-29T19:42:13.102Z,8.20
2018-11-29T19:44:43.245Z,8.20
2018-11-29T19:47:13.022Z,8.20
2018-11-29T19:49:42.813Z,8.20
2018-11-29T19:52:12.598Z,8.20
2018-11-29T19:54:42.369Z,8.10
2018-11-29T19:57:12.417Z,8.20
2018-11-29T19:59:48.950Z,8.10
2018-11-29T20:02:18.737Z,8.10
2018-11-29T20:04:48.553Z,8.00
2018-11-29T20:07:18.346Z,8.00
2018-11-29T20:09:48.109Z,7.90
2018-11-29T20:12:17.889Z,7.90
2018-11-29T20:14:47.667Z,7.80
2018-11-29T20:17:17.446Z,7.80
2018-11-29T20:19:47.330Z,7.80
2018-11-29T20:22:16.973Z,7.70
2018-11-29T20:24:46.756Z,7.70
2018-11-29T20:27:16.553Z,7.70
2018-11-29T20:29:46.325Z,7.70
2018-11-29T20:32:16.085Z,7.70
2018-11-29T20:34:45.885Z,7.70
2018-11-29T20:37:15.760Z,7.70
2018-11-29T20:39:45.438Z,7.80
2018-11-29T20:42:15.225Z,7.80
2018-11-29T20:44:44.996Z,7.90
2018-11-29T20:47:15.033Z,7.90
2018-11-29T20:49:44.793Z,8.00
2018-11-29T20:52:14.573Z,8.00
2018-11-29T20:54:44.327Z,8.00
2018-11-29T20:57:14.142Z,8.00
2018-11-29T20:59:43.914Z,8.00
2018-11-29T21:02:13.678Z,8.00
2018-11-29T21:04:43.734Z,8.00
2018-11-29T21:07:13.514Z,8.10
2018-11-29T21:09:43.541Z,8.20
2018-11-29T21:12:13.356Z,8.30
2018-11-29T21:14:43.127Z,8.40
2018-11-29T21:17:12.910Z,8.40
2018-11-29T21:19:42.668Z,8.30
2018-11-29T21:22:12.474Z,8.30
2018-11-29T21:24:42.257Z,8.20
2018-11-29T21:27:12.058Z,8.20
2018-11-29T21:29:41.842Z,8.00
2018-11-29T21:32:11.600Z,8.00
2018-11-29T21:34:41.410Z,7.90
2018-11-29T21:37:11.218Z,7.90
2018-11-29T21:39:41.006Z,7.90
2018-11-29T21:42:10.793Z,7.90
2018-11-29T21:44:40.643Z,7.80
2018-11-29T21:47:10.439Z,7.90
2018-11-29T21:49:40.250Z,7.90
2018-11-29T21:52:10.028Z,8.00
2018-11-29T21:54:39.821Z,8.00
2018-11-29T21:57:09.586Z,8.30
2018-11-29T21:59:39.397Z,8.40
2018-11-29T22:02:09.166Z,8.40
2018-11-29T22:04:40.126Z,8.50
2018-11-29T22:07:10.045Z,8.60
2018-11-29T22:09:39.835Z,8.60
2018-11-29T22:12:09.602Z,8.60
2018-11-29T22:14:39.389Z,8.60
2018-11-29T22:17:09.169Z,8.60
2018-11-29T22:19:38.958Z,8.60
2018-11-29T22:22:08.729Z,8.70
2018-11-29T22:24:38.521Z,8.60
2018-11-29T22:27:08.316Z,8.60
2018-11-29T22:29:38.094Z,8.70
2018-11-29T22:32:08.099Z,8.70
2018-11-29T22:34:37.865Z,8.70
2018-11-29T22:37:07.668Z,8.70
2018-11-29T22:39:37.429Z,8.60
2018-11-29T22:42:07.203Z,8.70
2018-11-29T22:44:36.975Z,8.70
2018-11-29T22:47:06.870Z,8.80
2018-11-29T22:49:36.625Z,8.90
2018-11-29T22:52:06.637Z,8.90
2018-11-29T22:54:36.405Z,8.90
2018-11-29T22:57:06.390Z,8.90
2018-11-29T22:59:36.177Z,9.10
2018-11-29T23:02:06.693Z,9.10
2018-11-29T23:04:36.509Z,9.00
2018-11-29T23:07:06.550Z,9.00
2018-11-29T23:09:36.340Z,9.00
2018-11-29T23:12:06.351Z,9.00
2018-11-29T23:14:36.140Z,9.00
2018-11-29T23:17:06.277Z,8.90
2018-11-29T23:19:36.361Z,8.90
2018-11-29T23:22:06.139Z,8.80
2018-11-29T23:24:35.934Z,8.80
2018-11-29T23:27:05.821Z,8.80
2018-11-29T23:29:35.601Z,8.80
2018-11-29T23:32:05.549Z,8.90
2018-11-29T23:34:35.770Z,9.00
2018-11-29T23:37:05.802Z,9.10
2018-11-29T23:39:35.585Z,9.20
2018-11-29T23:42:06.165Z,9.20
2018-11-29T23:44:36.093Z,9.30
2018-11-29T23:47:06.304Z,9.30
2018-11-29T23:49:36.105Z,9.30
2018-11-29T23:52:06.312Z,9.30
2018-11-29T23:54:36.073Z,9.30
2018-11-29T23:57:06.069Z,9.30
2018-11-29T23:59:36.266Z,9.40
